»·PEaware :: N30691 KHND-KHII

N30691 :: KHND-KHII

FLIGHT INFORMATION

Flight Status: Arrived
Operator: Privately registered:
United States
More flights under this callsign
Pilot: John F. (12896)
Aircraft: CESSNA 177 CARDINAL
(C177)
More flights by this aircraft type
Origin: KHND Henderson
United States
Destination: KHII Lake Havasu City
United States
More flights between these airports :: More routes between these airports
Route: +
File this flight plan on PilotEdge
Remarks:
Altitude:
(Current/Filed)
7,500ft
Speed:
(Current/Filed)
0kts
Departed: 07-Feb-18 06:31 PM
Arrived: 07-Feb-18 07:21 PM
Distance/Time
Traveled:
93nm/0:50
Distance/Time
To Go:
Arrived

Flight Plot

Page will automatically refresh every two minutes.

Flight plan parsing failed; only flown route is shown


Map Options




Map Legend


Flown Route
Filed Route
Departure Airport
Arrival Airport
Navaid (VOR, NDB)
Fix

Horizontal Profiles

Position Reports

Time Latitude Longitude Heading Altitude Ground
Speed
07-Feb-18 18:25 35.973539 -115.139781 0 2495ft 0kts
07-Feb-18 18:26 35.973540 -115.139781 0 2495ft 0kts
07-Feb-18 18:27 35.973540 -115.139781 0 2495ft 0kts
07-Feb-18 18:28 35.973541 -115.139781 0 2495ft 0kts
07-Feb-18 18:29 35.973542 -115.139781 0 2495ft 0kts
07-Feb-18 18:30 35.973651 -115.139418 82 2495ft 9kts
07-Feb-18 18:31 35.972595 -115.137519 135 2495ft 8kts
07-Feb-18 18:32 35.970377 -115.136620 168 2495ft 10kts
07-Feb-18 18:33 35.966653 -115.136618 180 2495ft 13kts
07-Feb-18 18:34 35.963419 -115.136580 139 2495ft 6kts
07-Feb-18 18:35 35.963354 -115.136416 99 2495ft 0kts
07-Feb-18 18:36 35.963354 -115.136415 99 2495ft 0kts
07-Feb-18 18:37 35.963680 -115.135534 1 2495ft 8kts
07-Feb-18 18:38 35.967828 -115.135485 1 2500ft 66kts
07-Feb-18 18:39 35.988550 -115.136486 312 3040ft 81kts
07-Feb-18 18:40 35.971359 -115.145804 174 3644ft 96kts
07-Feb-18 18:41 35.944844 -115.136181 150 4248ft 107kts
07-Feb-18 18:41 35.923373 -115.119878 142 4769ft 108kts
07-Feb-18 18:43 35.894068 -115.091625 147 5309ft 124kts
07-Feb-18 18:43 35.867796 -115.074722 158 5513ft 135kts
07-Feb-18 18:44 35.833966 -115.055904 158 5540ft 133kts
07-Feb-18 18:46 35.794935 -115.033936 159 5735ft 129kts
07-Feb-18 18:46 35.767606 -115.018545 161 6023ft 129kts
07-Feb-18 18:47 35.735269 -115.000375 162 6405ft 124kts
07-Feb-18 18:48 35.704035 -114.982841 164 6793ft 122kts
07-Feb-18 18:49 35.672821 -114.965394 164 7113ft 123kts
07-Feb-18 18:50 35.642071 -114.948134 164 7474ft 121kts
07-Feb-18 18:51 35.609934 -114.930299 163 7561ft 129kts
07-Feb-18 18:52 35.577021 -114.911937 163 7570ft 131kts
07-Feb-18 18:53 35.543392 -114.893180 163 7520ft 132kts
07-Feb-18 18:54 35.509710 -114.874381 163 7484ft 131kts
07-Feb-18 18:55 35.476462 -114.855680 163 7477ft 131kts
07-Feb-18 18:56 35.443042 -114.837059 163 7472ft 131kts
07-Feb-18 18:57 35.409733 -114.818543 163 7470ft 131kts
07-Feb-18 18:58 35.376432 -114.800046 163 7469ft 131kts
07-Feb-18 18:59 35.343012 -114.781498 163 7469ft 131kts
07-Feb-18 19:00 35.309724 -114.763042 163 7470ft 131kts
07-Feb-18 19:01 35.276313 -114.744534 163 7471ft 131kts
07-Feb-18 19:02 35.243029 -114.726113 163 7473ft 131kts
07-Feb-18 19:03 35.209731 -114.707701 163 7475ft 131kts
07-Feb-18 19:04 35.176332 -114.689250 163 7478ft 131kts
07-Feb-18 19:05 35.143062 -114.670887 163 7481ft 131kts
07-Feb-18 19:06 35.109657 -114.652466 163 7484ft 131kts
07-Feb-18 19:07 35.076374 -114.634129 163 7488ft 131kts
07-Feb-18 19:08 35.043090 -114.615807 163 7492ft 131kts
07-Feb-18 19:09 35.009665 -114.597623 164 7496ft 131kts
07-Feb-18 19:10 34.976382 -114.579354 163 7500ft 131kts
07-Feb-18 19:11 34.942983 -114.561017 163 7504ft 131kts
07-Feb-18 19:12 34.909426 -114.542609 163 7487ft 130kts
07-Feb-18 19:13 34.876302 -114.524444 164 7503ft 126kts
07-Feb-18 19:14 34.843299 -114.506445 163 6891ft 129kts
07-Feb-18 19:15 34.810377 -114.488445 162 6331ft 131kts
07-Feb-18 19:16 34.776201 -114.471326 166 5684ft 133kts
07-Feb-18 19:17 34.740328 -114.463028 176 5059ft 127kts
07-Feb-18 19:18 34.705412 -114.457300 168 4246ft 121kts
07-Feb-18 19:19 34.673925 -114.446940 159 3287ft 112kts
07-Feb-18 19:20 34.647656 -114.429074 144 2592ft 106kts
07-Feb-18 19:21 34.623826 -114.409371 144 2106ft 99kts
07-Feb-18 19:22 34.600432 -114.392268 157 1794ft 97kts
07-Feb-18 19:23 34.577237 -114.382132 158 1770ft 83kts
07-Feb-18 19:24 34.555961 -114.372143 154 1797ft 81kts
07-Feb-18 19:25 34.540671 -114.355243 73 1598ft 78kts
07-Feb-18 19:26 34.556626 -114.348066 330 981ft 70kts
07-Feb-18 19:27 34.566670 -114.355557 296 786ft 9kts
07-Feb-18 19:28 34.566782 -114.355883 287 786ft 0kts
07-Feb-18 19:29 34.566833 -114.358437 265 786ft 9kts

Navigation Log

Ident Type
Flight plan parsing failed, navigation log unavailable